^^
Datos históricos de la estación: Murcia-Puente Tocinos
Diario Informe para Noviembre 27, 2019 Unidades:  Ingés    Métrico   Ambas
Diario Semanal Mensual Anual
  Máxima: Mínima: Promedio:
Temperatura: 72.7 °F 52 °F 61.2 °F
Punto de rocio: 53.8 °F 43 °F 48.2 °F
Humedad: 90% 38% 66%
Velocidad viento: 12.3mph 0mph 4.5mph
Racha viento: 21.3mph - -
Viento- - SSO
Presión: 29.9 in 29.8 in -
Precipitación: 0 in    
 
 
Tabla de datos para Noviembre 27, 2019
Hora Temperatura Punto de rocio Presión Viento Velocidad viento Racha viento Humedad Intensidad lluvia(por hora) Nubes
00:04 56.7 °F 52 °F 29.8 in SSE 5.7 mph 9 mph 83.9% 0 in
00:09 56.5 °F 51.8 °F 29.8 in Sur 5.4 mph 8 mph 84.5% 0 in
00:14 56.3 °F 51.8 °F 29.8 in SSO 4.5 mph 6 mph 85% 0 in
00:19 56.3 °F 52.2 °F 29.8 in SO 4 mph 3.5 mph 85.9% 0 in
00:24 56.3 °F 52.2 °F 29.8 in SO 2.5 mph 3 mph 86% 0 in
00:29 56.3 °F 52.2 °F 29.8 in SO 1.8 mph   86% 0 in
00:34 56.5 °F 52.3 °F 29.8 in SO 0.6 mph 5.2 mph 86% 0 in
00:39 56.5 °F 52.3 °F 29.8 in Calm   6.9 mph 86% 0 in
00:44 56.3 °F 52.2 °F 29.8 in SSE 2.1 mph 7 mph 86% 0 in
00:49 56.3 °F 52.2 °F 29.8 in SSE 2.9 mph 5 mph 86% 0 in
00:54 56.3 °F 52.5 °F 29.8 in SO 2.5 mph 5 mph 87% 0 in
00:59 56.1 °F 52.3 °F 29.8 in SO 2.4 mph 3.6 mph 87% 0 in
01:04 56.1 °F 52.2 °F 29.8 in SO 1.9 mph 4.6 mph 87% 0 in
01:09 55.9 °F 52.2 °F 29.8 in SO 1.8 mph 5 mph 87.3% 0 in
01:14 56.1 °F 52.5 °F 29.8 in SSE 1.8 mph 5.2 mph 88% 0 in
01:19 56.1 °F 52.5 °F 29.8 in SE 1.8 mph 5.9 mph 88% 0 in
01:24 55.9 °F 52.3 °F 29.8 in SE 3 mph 6 mph 87.6% 0 in
01:29 55.8 °F 52.3 °F 29.8 in SSE 3.6 mph 6.2 mph 88% 0 in
01:34 55.6 °F 52.2 °F 29.8 in SE 3.9 mph 6.9 mph 88% 0 in
01:39 55.6 °F 52 °F 29.8 in SSE 4 mph 8.1 mph 88% 0 in
01:44 55.2 °F 51.8 °F 29.8 in SSE 4.5 mph 8.5 mph 88% 0 in
01:49 55 °F 51.6 °F 29.8 in SSE 4.7 mph 9.2 mph 88.4% 0 in
01:54 54.9 °F 51.6 °F 29.8 in Sur 5.5 mph 9 mph 89% 0 in
01:59 54.9 °F 51.6 °F 29.8 in Sur 5.9 mph 9.2 mph 89% 0 in
02:04 55 °F 51.8 °F 29.8 in Sur 6.3 mph 10.4 mph 88.6% 0 in
02:09 55.4 °F 52 °F 29.8 in SSO 6.4 mph 10 mph 88% 0 in
02:14 55.9 °F 52 °F 29.8 in SSO 6.1 mph 9 mph 87% 0 in
02:19 56.1 °F 52.2 °F 29.8 in SSO 5.9 mph 7 mph 86.6% 0 in
02:24 56.5 °F 52.3 °F 29.8 in SSO 4.3 mph 6 mph 85.9% 0 in
02:29 56.5 °F 52 °F 29.8 in ONO 3.6 mph 5 mph 85% 0 in
02:34 56.1 °F 51.4 °F 29.8 in NO 2.7 mph 5.8 mph 84% 0 in
02:39 55.6 °F 50.9 °F 29.8 in NO 2.4 mph 6 mph 84.5% 0 in
02:44 55 °F 50.9 °F 29.8 in ONO 2.4 mph 4.6 mph 85.5% 0 in
02:49 54.9 °F 50.9 °F 29.8 in ONO 2.4 mph 5 mph 86.3% 0 in
02:54 54.7 °F 50.7 °F 29.8 in Oeste 2.4 mph 4.6 mph 87% 0 in
02:59 54.3 °F 50.9 °F 29.8 in SO 2.4 mph 5.8 mph 87.9% 0 in
03:04 54.1 °F 50.7 °F 29.8 in SSE 2.7 mph 6 mph 88% 0 in
03:09 54.1 °F 50.7 °F 29.8 in SSE 2.9 mph 6.2 mph 88% 0 in
03:14 54 °F 50.5 °F 29.8 in SSE 3.4 mph 6.2 mph 88% 0 in
03:19 54 °F 50.5 °F 29.8 in Sur 3.6 mph 6 mph 88% 0 in
03:24 54 °F 50.5 °F 29.8 in Sur 3.9 mph 6.9 mph 88% 0 in
03:29 54 °F 50.5 °F 29.8 in Sur 4 mph 7 mph 88% 0 in
03:34 54 °F 50.4 °F 29.8 in SSO 3.7 mph 8.1 mph 87.2% 0 in
03:39 54 °F 50.5 °F 29.8 in SO 3.6 mph 8 mph 87.9% 0 in
03:44 54.3 °F 50.7 °F 29.8 in SO 4.7 mph 7 mph 87.7% 0 in
03:49 54.9 °F 51.1 °F 29.8 in SO 5.2 mph 7 mph 86.9% 0 in
03:54 55.2 °F 51.1 °F 29.8 in Oeste 4.6 mph 6 mph 85.6% 0 in
03:59 55.4 °F 50.7 °F 29.8 in ONO 4.3 mph 6 mph 84.2% 0 in
04:04 55.2 °F 50.5 °F 29.8 in ONO 2.6 mph 4.3 mph 84% 0 in
04:09 55.2 °F 50.5 °F 29.8 in SSO 2 mph 5 mph 84% 0 in
04:14 55 °F 50.4 °F 29.8 in SSO 2 mph 5 mph 84% 0 in
04:19 54.9 °F 50.4 °F 29.8 in SSO 2 mph 3.5 mph 84.6% 0 in
04:24 54.9 °F 50.4 °F 29.8 in SO 1.9 mph 5.2 mph 85% 0 in
04:29 54.1 °F 49.5 °F 29.8 in NNO 1.8 mph 8.1 mph 84.2% 0 in
04:34 53.2 °F 48.9 °F 29.8 in Oeste 3 mph 8 mph 85.2% 0 in
04:39 53.1 °F 49.3 °F 29.8 in OSO 3.6 mph 5 mph 86.7% 0 in
04:44 53.1 °F 49.5 °F 29.8 in SO 2.7 mph 5 mph 87.5% 0 in
04:49 53.1 °F 49.6 °F 29.8 in SE 2.4 mph 6.2 mph 87.9% 0 in
04:54 52.7 °F 49.1 °F 29.8 in Este 2.9 mph 6.2 mph 87.3% 0 in
04:59 52.5 °F 49.1 °F 29.8 in Este 3.1 mph 6 mph 88% 0 in
05:04 52.3 °F 49.1 °F 29.8 in Este 2.3 mph 3 mph 88.5% 0 in
05:09 52.3 °F 49.3 °F 29.8 in Este 2 mph 2 mph 89% 0 in
05:14 52.3 °F 49.3 °F 29.8 in Este 0.6 mph   89% 0 in
05:19 52.3 °F 49.3 °F 29.8 in Calm   4.7 mph 89% 0 in
05:24 52.5 °F 49.5 °F 29.8 in SE 1.4 mph 5 mph 89% 0 in
05:29 52.5 °F 49.6 °F 29.8 in SE 2 mph 4 mph 89.6% 0 in
05:34 52.5 °F 49.5 °F 29.8 in ESE 0.6 mph 6.9 mph 89% 0 in
05:39 52.3 °F 49.1 °F 29.8 in Calm   7 mph 89% 0 in
05:44 52.3 °F 49.3 °F 29.8 in SO 2.2 mph 5.9 mph 89.5% 0 in
05:49 52.3 °F 49.5 °F 29.8 in SSO 3.1 mph 6.2 mph 90% 0 in
05:54 52.3 °F 49.6 °F 29.8 in SSO 3.9 mph 6.2 mph 90% 0 in
05:59 52.5 °F 49.6 °F 29.8 in SSE 4.3 mph 6 mph 90% 0 in
06:04 52.5 °F 49.5 °F 29.8 in NE 3.4 mph 5.8 mph 89% 0 in
06:09 52.3 °F 49.3 °F 29.8 in Este 3.1 mph 6.9 mph 88.9% 0 in
06:14 52.2 °F 48.9 °F 29.8 in NNE 3.4 mph 7 mph 88.9% 0 in
06:19 52 °F 48.7 °F 29.8 in NE 3.6 mph 6 mph 89% 0 in
06:24 52 °F 48.9 °F 29.8 in ENE 2.5 mph 5.9 mph 89.4% 0 in
06:29 52.2 °F 49.3 °F 29.8 in SSE 2 mph 7.4 mph 90% 0 in
06:34 52.5 °F 49.6 °F 29.8 in SSE 3.6 mph 7 mph 90% 0 in
06:39 52.7 °F 49.6 °F 29.8 in Sur 4.3 mph 6 mph 89.3% 0 in
06:44 52.9 °F 49.6 °F 29.8 in SSE 3.8 mph 5.2 mph 89% 0 in
06:49 53.1 °F 49.6 °F 29.8 in Sur 3.6 mph 5 mph 88.4% 0 in
06:54 53.1 °F 49.6 °F 29.8 in Sur 2.7 mph 5 mph 88% 0 in
06:59 53.1 °F 49.6 °F 29.8 in SSO 2.4 mph 4.3 mph 88% 0 in
07:04 52.9 °F 49.5 °F 29.8 in SO 2.1 mph 5.2 mph 88% 0 in
07:09 52.9 °F 49.5 °F 29.8 in SO 2 mph 5 mph 88% 0 in
07:14 53.1 °F 49.5 °F 29.8 in Oeste 2.6 mph 5 mph 87.8% 0 in
07:19 52.9 °F 49.3 °F 29.8 in OSO 2.9 mph 5 mph 87.4% 0 in
07:24 52.9 °F 49.5 °F 29.8 in OSO 2.9 mph 5.4 mph 88% 0 in
07:29 52.9 °F 49.5 °F 29.8 in SO 2.9 mph 6.4 mph 88% 0 in
07:34 53.1 °F 49.6 °F 29.8 in Sur 3.9 mph 7 mph 88% 0 in
07:39 53.1 °F 49.5 °F 29.8 in SSE 4.3 mph 6 mph 87.7% 0 in
07:44 53.1 °F 49.3 °F 29.8 in SE 3.9 mph 6 mph 87% 0 in
07:49 52.9 °F 49.1 °F 29.8 in ESE 3.6 mph 5 mph 87% 0 in
07:54 52.7 °F 48.9 °F 29.8 in Este 2.8 mph 4.6 mph 87% 0 in
07:59 52.3 °F 48.7 °F 29.8 in Este 2.4 mph 5 mph 87% 0 in
08:04 52.3 °F 48.6 °F 29.8 in Este 2.1 mph 5 mph 87.1% 0 in
08:09 52.2 °F 48.7 °F 29.8 in ESE 2 mph 4.7 mph 88% 0 in
08:14 52.2 °F 48.7 °F 29.8 in ESE 2.8 mph 5.2 mph 88% 0 in
08:19 52.2 °F 48.7 °F 29.8 in SE 3.1 mph 5.2 mph 88% 0 in
08:24 52.5 °F 49.1 °F 29.8 in SSO 3.4 mph 5.9 mph 88% 0 in
08:29 52.9 °F 49.3 °F 29.8 in SSO 3.6 mph 6 mph 88% 0 in
08:34 53.1 °F 49.5 °F 29.8 in Sur 3.9 mph 6.2 mph 87.1% 0 in
08:39 53.6 °F 49.6 °F 29.8 in Sur 4 mph 6 mph 86.7% 0 in
08:44 54 °F 49.8 °F 29.8 in SSE 3.4 mph 6 mph 85.9% 0 in
08:49 53.8 °F 49.3 °F 29.8 in North 3.1 mph 5 mph 84.4% 0 in
08:54 53.4 °F 48.9 °F 29.9 in NNE 3 mph 5 mph 84.7% 0 in
08:59 53.2 °F 48.7 °F 29.9 in NNE 2.9 mph 5.8 mph 85% 0 in
09:04 53.1 °F 48.9 °F 29.9 in NE 3 mph 6 mph 85.8% 0 in
09:09 53.4 °F 49.6 °F 29.9 in NE 3.1 mph 5 mph 86.8% 0 in
09:14 54 °F 49.8 °F 29.9 in NE 0.9 mph 2.3 mph 86.1% 0 in
09:19 54.5 °F 50 °F 29.9 in Calm   3.1 mph 85% 0 in
09:24 55 °F 50.2 °F 29.9 in NE 0.9 mph 3.6 mph 83.8% 0 in
09:29 55.6 °F 50.5 °F 29.9 in ENE 1.4 mph 4 mph 83.1% 0 in
09:34 55.9 °F 50.4 °F 29.9 in Este 1.7 mph 4 mph 81.4% 0 in
09:39 56.7 °F 50.7 °F 29.9 in Este 1.8 mph 4 mph 80.9% 0 in
09:44 56.8 °F 50.9 °F 29.9 in Este 0.6 mph 2.4 mph 80% 0 in
09:49 57.2 °F 50.9 °F 29.9 in Calm   3.6 mph 79.1% 0 in
09:54 57.6 °F 51.1 °F 29.9 in Sur 1 mph 4 mph 79.4% 0 in
09:59 57.9 °F 51.4 °F 29.9 in Sur 1.4 mph 4 mph 79% 0 in
10:04 58.6 °F 51.8 °F 29.9 in Sur 1.4 mph 4.3 mph 78.3% 0 in
10:09 59.2 °F 51.6 °F 29.9 in SO 1.4 mph 5 mph 76.3% 0 in
10:14 59.4 °F 51.8 °F 29.9 in SSO 2.1 mph 5 mph 76% 0 in
10:19 59.5 °F 51.8 °F 29.9 in SSO 2.4 mph 6.2 mph 75.3% 0 in
10:24 59.9 °F 51.8 °F 29.9 in Sur 2.9 mph 6 mph 74.6% 0 in
10:29 60.3 °F 52.2 °F 29.9 in Sur 3.1 mph 5 mph 74.4% 0 in
10:34 60.8 °F 52.3 °F 29.9 in SSE 2.6 mph 4.6 mph 73.4% 0 in
10:39 61.3 °F 52.3 °F 29.9 in SSE 2.4 mph 6.2 mph 72.3% 0 in
10:44 61.5 °F 52.5 °F 29.9 in SSE 3.5 mph 6.2 mph 72.2% 0 in
10:49 61.9 °F 53.1 °F 29.9 in Sur 4 mph 6 mph 72.6% 0 in
10:54 62.2 °F 53.2 °F 29.9 in Sur 3.4 mph 6 mph 72% 0 in
10:59 62.6 °F 53.4 °F 29.9 in Sur 3.1 mph 6 mph 71.6% 0 in
11:04 63.1 °F 53.4 °F 29.9 in SSE 2.9 mph 5 mph 70.8% 0 in
11:09 63.7 °F 53.4 °F 29.9 in ESE 2.9 mph 5.2 mph 69.2% 0 in
11:14 64 °F 53.4 °F 29.9 in SE 2.9 mph 5.8 mph 68.4% 0 in
11:19 64.4 °F 53.6 °F 29.9 in SE 2.9 mph 6 mph 68% 0 in
11:24 64.8 °F 53.6 °F 29.9 in Sur 3 mph 5.8 mph 67.3% 0 in
11:29 64.9 °F 53.8 °F 29.9 in SSO 3.1 mph 6 mph 66.7% 0 in
11:34 65.1 °F 53.2 °F 29.9 in OSO 3.1 mph 7.4 mph 65.5% 0 in
11:39 65.7 °F 53.4 °F 29.9 in ONO 3.1 mph 8.5 mph 64.7% 0 in
11:44 66 °F 53.4 °F 29.9 in NO 4.2 mph 10.7 mph 63.5% 0 in
11:49 66.7 °F 53.4 °F 29.9 in ONO 4.7 mph 11 mph 62.2% 0 in
11:54 67.5 °F 53.1 °F 29.9 in ONO 5.8 mph 11 mph 59.8% 0 in
11:59 68.2 °F 52.7 °F 29.9 in SO 6.2 mph 9 mph 57.9% 0 in
12:04 68 °F 53.2 °F 29.9 in ESE 4.8 mph 10.4 mph 59.2% 0 in
12:09 67.5 °F 53.1 °F 29.9 in SE 4.3 mph 10 mph 60% 0 in
12:14 67.5 °F 53.2 °F 29.9 in SE 4.9 mph 7.4 mph 60% 0 in
12:19 68 °F 53.2 °F 29.9 in SE 5.2 mph 7 mph 59.2% 0 in
12:24 68.5 °F 53.1 °F 29.9 in SSE 4.8 mph 7.4 mph 58% 0 in
12:29 68.9 °F 52.5 °F 29.9 in SE 4.7 mph 7 mph 56% 0 in
12:34 69.3 °F 52.5 °F 29.9 in ESE 4.7 mph 7.6 mph 55.1% 0 in
12:39 70 °F 52.9 °F 29.9 in SE 4.7 mph 10 mph 54.6% 0 in
12:44 70.2 °F 52.5 °F 29.9 in SE 5 mph 9 mph 53.5% 0 in
12:49 70.5 °F 52 °F 29.9 in SSE 5.2 mph 7.4 mph 51.6% 0 in
12:54 71.1 °F 51.1 °F 29.9 in SSO 4.1 mph 9.7 mph 49.6% 0 in
12:59 71.1 °F 50.9 °F 29.8 in OSO 3.6 mph 10 mph 48.9% 0 in
13:04 71.1 °F 51.1 °F 29.8 in ONO 4.4 mph 8.1 mph 49.3% 0 in
13:09 71.2 °F 51.3 °F 29.8 in ONO 4.7 mph 8.1 mph 49.4% 0 in
13:14 71.1 °F 51.3 °F 29.8 in Oeste 4.7 mph 8.1 mph 49.4% 0 in
13:19 71.1 °F 51.4 °F 29.8 in NO 4.7 mph 8.1 mph 50% 0 in
13:24 71.2 °F 51.6 °F 29.8 in ONO 4.4 mph 8.1 mph 50% 0 in
13:29 71.2 °F 51.4 °F 29.8 in OSO 4.3 mph 8 mph 49.7% 0 in
13:34 71.2 °F 51.3 °F 29.8 in Oeste 3.5 mph 5.2 mph 49.2% 0 in
13:39 71.4 °F 51.6 °F 29.8 in SSO 3.1 mph 5.9 mph 49.7% 0 in
13:44 71.8 °F 50.9 °F 29.8 in Oeste 3 mph 8.1 mph 47.9% 0 in
13:49 72.1 °F 50.7 °F 29.8 in ONO 2.9 mph 9.7 mph 47% 0 in
13:54 72.3 °F 50.2 °F 29.8 in ONO 4.1 mph 10.7 mph 45.8% 0 in
13:59 72.3 °F 49.8 °F 29.8 in NO 4.7 mph 11.8 mph 45.2% 0 in
14:04 72.3 °F 49.8 °F 29.8 in ONO 6.6 mph 12.7 mph 45.1% 0 in
14:09 72.3 °F 49.8 °F 29.8 in ONO 7.4 mph 15 mph 44.9% 0 in
14:14 72.5 °F 50 °F 29.8 in NO 8.1 mph 15 mph 45.2% 0 in
14:19 72.7 °F 50.2 °F 29.8 in NO 8.5 mph 16.3 mph 45.2% 0 in
14:24 72.7 °F 50 °F 29.8 in ONO 8.5 mph 16.1 mph 45% 0 in
14:29 72.7 °F 50.4 °F 29.8 in NO 8.5 mph 15 mph 45.3% 0 in
14:34 72.7 °F 50 °F 29.8 in NO 7 mph 14 mph 44.8% 0 in
14:39 72.5 °F 48.7 °F 29.8 in ONO 6.4 mph 17.3 mph 43% 0 in
14:44 72.3 °F 47.5 °F 29.8 in NO 8.3 mph 18.5 mph 41.4% 0 in
14:49 72.3 °F 47.3 °F 29.8 in ONO 9.2 mph 19 mph 41% 0 in
14:54 72.3 °F 46.8 °F 29.8 in NO 8 mph 15 mph 40.2% 0 in
14:59 72.3 °F 46.9 °F 29.8 in ONO 7.4 mph 16.8 mph 40.5% 0 in
15:04 72.3 °F 46.8 °F 29.8 in ONO 8.3 mph 18.1 mph 40.2% 0 in
15:09 72.3 °F 46.6 °F 29.8 in ONO 8.7 mph 18.4 mph 40% 0 in
15:14 72.1 °F 46 °F 29.8 in ONO 9.6 mph 20.7 mph 39.1% 0 in
15:19 72.1 °F 45.9 °F 29.8 in ONO 10 mph 21 mph 39.2% 0 in
15:24 72 °F 45.9 °F 29.8 in ONO 10.1 mph 16.1 mph 39.3% 0 in
15:29 72.1 °F 45.9 °F 29.8 in NO 10.2 mph 16.1 mph 39% 0 in
15:34 72.1 °F 45.5 °F 29.8 in ONO 9.5 mph 19 mph 38.7% 0 in
15:39 72.1 °F 45.5 °F 29.8 in ONO 9.2 mph 19 mph 38.6% 0 in
15:44 72.1 °F 45.5 °F 29.8 in ONO 9.6 mph 19.7 mph 38.4% 0 in
15:49 72.1 °F 45.1 °F 29.8 in ONO 9.7 mph 20.8 mph 38% 0 in
15:54 72 °F 45 °F 29.8 in NO 10.1 mph 21 mph 38.1% 0 in
15:59 71.6 °F 44.8 °F 29.8 in NO 10.2 mph 18.5 mph 38.4% 0 in
16:04 71.4 °F 44.8 °F 29.8 in NO 10.2 mph 19 mph 38.3% 0 in
16:09 71.2 °F 44.4 °F 29.8 in NO 10.2 mph 19.6 mph 38% 0 in
16:14 71.1 °F 44.6 °F 29.8 in NO 10.9 mph 20 mph 38.6% 0 in
16:19 71.1 °F 44.8 °F 29.8 in ONO 11.2 mph 19.6 mph 39% 0 in
16:24 70.9 °F 44.8 °F 29.8 in ONO 10.2 mph 20 mph 39% 0 in
16:29 70.9 °F 44.8 °F 29.8 in NO 9.7 mph 16.3 mph 39% 0 in
16:34 70.7 °F 44.6 °F 29.8 in NO 9 mph 19.7 mph 39% 0 in
16:39 70.5 °F 44.4 °F 29.8 in NO 8.7 mph 20 mph 39% 0 in
16:44 70.3 °F 44.1 °F 29.8 in ONO 9.4 mph 16.1 mph 39% 0 in
16:49 70.2 °F 44.1 °F 29.8 in ONO 9.7 mph 16.3 mph 39% 0 in
16:54 70 °F 43.9 °F 29.8 in ONO 9 mph 21.3 mph 39% 0 in
16:59 69.6 °F 43.9 °F 29.8 in ONO 8.7 mph 21 mph 39.4% 0 in
17:04 69.6 °F 44.2 °F 29.8 in ONO 11.4 mph 21 mph 40% 0 in
17:09 69.4 °F 44.1 °F 29.8 in ONO 12.3 mph 21 mph 40% 0 in
17:14 69.4 °F 44.1 °F 29.8 in ONO 10.7 mph 19 mph 40% 0 in
17:19 69.3 °F 44.1 °F 29.8 in ONO 10 mph 19 mph 40.5% 0 in
17:24 68.9 °F 44.1 °F 29.8 in Oeste 10.5 mph 19.7 mph 40.7% 0 in
17:29 68.7 °F 43.3 °F 29.8 in ONO 10.7 mph 20 mph 40% 0 in
17:34 68.5 °F 43.5 °F 29.8 in ONO 11.8 mph 20 mph 40.4% 0 in
17:39 68.4 °F 43.7 °F 29.8 in ONO 12.3 mph 20 mph 41% 0 in
17:44 68 °F 43.5 °F 29.8 in Oeste 9.4 mph 15 mph 41% 0 in
17:49 67.6 °F 43.7 °F 29.8 in Oeste 8.1 mph 15 mph 42% 0 in
17:54 67.5 °F 43.7 °F 29.8 in Oeste 7.3 mph 13 mph 42% 0 in
17:59 67.3 °F 43.9 °F 29.8 in Oeste 6.9 mph 12 mph 42.6% 0 in
18:04 67.1 °F 43.9 °F 29.8 in SO 4.8 mph 9 mph 43% 0 in
18:09 66.9 °F 43.7 °F 29.9 in SSE 4 mph 6.9 mph 43% 0 in
18:14 66.9 °F 43.7 °F 29.9 in SSO 4 mph 8.1 mph 43% 0 in
18:19 66.7 °F 43.7 °F 29.9 in SSO 4 mph 10.2 mph 43.2% 0 in
18:24 66.7 °F 43.5 °F 29.9 in SO 5 mph 18.4 mph 43% 0 in
18:29 67.1 °F 43.5 °F 29.9 in SO 5.4 mph 18 mph 42.6% 0 in
18:34 67.1 °F 43.5 °F 29.9 in SSE 5.8 mph 10 mph 42.7% 0 in
18:39 66.9 °F 43.7 °F 29.9 in OSO 5.9 mph 6 mph 43% 0 in
18:44 66.7 °F 43.5 °F 29.9 in OSO 4 mph 6.4 mph 43% 0 in
18:49 66.6 °F 43.3 °F 29.9 in ONO 3.1 mph 7 mph 43% 0 in
18:54 66.4 °F 43.3 °F 29.9 in Oeste 3.7 mph 8.1 mph 43.4% 0 in
18:59 66 °F 43 °F 29.9 in ONO 4 mph 8.5 mph 43.1% 0 in
19:04 66 °F 43.3 °F 29.9 in OSO 4.5 mph 9 mph 43.8% 0 in
19:09 65.8 °F 43.3 °F 29.9 in Oeste 4.7 mph 6 mph 44% 0 in
19:14 65.7 °F 43.2 °F 29.9 in OSO 3.6 mph 7.4 mph 44% 0 in
19:19 65.7 °F 43.2 °F 29.9 in OSO 3.1 mph 10.4 mph 44% 0 in
19:24 65.8 °F 43.3 °F 29.9 in Oeste 4.6 mph 10 mph 44% 0 in
19:29 65.8 °F 43.2 °F 29.9 in OSO 5.2 mph 9 mph 44% 0 in
19:34 65.5 °F 43.3 °F 29.9 in OSO 5.2 mph 12.7 mph 44.6% 0 in
19:39 65.3 °F 43.5 °F 29.9 in Oeste 5.2 mph 13 mph 45% 0 in
19:44 65.3 °F 43.3 °F 29.9 in OSO 5.9 mph 13 mph 45% 0 in
19:49 65.1 °F 43.5 °F 29.9 in OSO 6.2 mph 9 mph 45.6% 0 in
19:54 64.8 °F 43.7 °F 29.9 in SO 4.8 mph 9.7 mph 46.2% 0 in
19:59 64.4 °F 43.7 °F 29.9 in OSO 4.3 mph 10 mph 47% 0 in
20:04 64.2 °F 43.5 °F 29.9 in OSO 5 mph 9 mph 47% 0 in
20:09 64 °F 43.9 °F 29.9 in OSO 5.2 mph 8 mph 47.9% 0 in
20:14 63.9 °F 43.9 °F 29.9 in OSO 4.3 mph 8.1 mph 48% 0 in
20:19 63.9 °F 43.7 °F 29.9 in Oeste 4 mph 9.2 mph 48% 0 in
20:24 63.9 °F 43.7 °F 29.9 in Oeste 4.8 mph 9.2 mph 48% 0 in
20:29 63.7 °F 43.7 °F 29.9 in Oeste 5.2 mph 13.8 mph 48% 0 in
20:34 63.9 °F 43.7 °F 29.9 in Oeste 5.3 mph 14 mph 48% 0 in
20:39 63.7 °F 43.7 °F 29.9 in Oeste 5.4 mph 10.2 mph 48% 0 in
20:44 63.9 °F 43.7 °F 29.9 in Oeste 5.8 mph 10.4 mph 48% 0 in
20:49 63.9 °F 43.7 °F 29.9 in Oeste 5.9 mph 10 mph 48% 0 in
20:54 63.7 °F 43.5 °F 29.9 in Oeste 5.1 mph 8.5 mph 48.1% 0 in
20:59 63.5 °F 43.9 °F 29.9 in Oeste 4.7 mph 9 mph 49% 0 in
21:04 63.3 °F 43.9 °F 29.9 in Oeste 4.4 mph 7 mph 49% 0 in
21:09 63.3 °F 43.9 °F 29.9 in SSO 4.3 mph 6.2 mph 49% 0 in
21:14 63.3 °F 43.9 °F 29.9 in SO 3.9 mph 6 mph 49% 0 in
21:19 63.3 °F 43.9 °F 29.9 in SO 3.6 mph 6 mph 49% 0 in
21:24 63.3 °F 43.9 °F 29.9 in SO 3.6 mph 6.2 mph 49% 0 in
21:29 63.3 °F 43.9 °F 29.9 in SSO 3.6 mph 6 mph 49% 0 in
21:34 63.1 °F 43.7 °F 29.9 in SO 3.9 mph 6 mph 49% 0 in
21:39 63.1 °F 44.1 °F 29.9 in Sur 4 mph 8.1 mph 49.8% 0 in
21:44 62.6 °F 44.1 °F 29.9 in SSE 4.5 mph 8 mph 50.5% 0 in
21:49 62.1 °F 44.1 °F 29.9 in Sur 4.7 mph 10 mph 51.8% 0 in
21:54 61.3 °F 43.9 °F 29.9 in Sur 5.5 mph 10.4 mph 52.8% 0 in
21:59 61 °F 44.1 °F 29.9 in SSO 5.9 mph 10 mph 53.8% 0 in
22:04 60.6 °F 43.9 °F 29.9 in Sur 5.5 mph 8.1 mph 54% 0 in
22:09 60.4 °F 44.1 °F 29.9 in Sur 5.4 mph 8 mph 54.8% 0 in
22:14 60.3 °F 44.1 °F 29.9 in Sur 4.9 mph 7 mph 55% 0 in
22:19 60.1 °F 44.2 °F 29.9 in Oeste 4.7 mph 6 mph 55.7% 0 in
22:24 59.7 °F 44.1 °F 29.9 in NO 3.4 mph 5.9 mph 56.2% 0 in
22:29 59 °F 44.2 °F 29.9 in NO 2.9 mph 6 mph 57.7% 0 in
22:34 58.1 °F 44.2 °F 29.9 in NO 3.4 mph 6 mph 59.7% 0 in
22:39 57.4 °F 44.2 °F 29.9 in ONO 3.6 mph 6.2 mph 61.4% 0 in
22:44 57 °F 44.2 °F 29.9 in OSO 3.3 mph 6 mph 62.5% 0 in
22:49 56.8 °F 44.4 °F 29.9 in Oeste 3.1 mph 6 mph 63% 0 in
22:54 56.8 °F 44.4 °F 29.9 in OSO 2.6 mph 4.7 mph 63% 0 in
22:59 56.8 °F 44.4 °F 29.9 in OSO 2.4 mph 5 mph 63% 0 in
23:04 57 °F 44.2 °F 29.9 in OSO 2.8 mph 5 mph 62.2% 0 in
23:09 57.6 °F 44.6 °F 29.9 in SSE 2.9 mph 5.9 mph 62% 0 in
23:14 57.6 °F 44.6 °F 29.9 in SE 3.4 mph 7.4 mph 62% 0 in
23:19 56.8 °F 44.4 °F 29.9 in SE 3.6 mph 7.4 mph 62.8% 0 in
23:24 56.3 °F 44.2 °F 29.9 in SE 4.3 mph 8.1 mph 63.8% 0 in
23:29 55.9 °F 44.1 °F 29.9 in SSE 4.7 mph 9.2 mph 64.1% 0 in
23:34 55.8 °F 43.9 °F 29.9 in Sur 5.2 mph 9 mph 64.2% 0 in
23:39 55.8 °F 43.9 °F 29.9 in Sur 5.4 mph 8 mph 64% 0 in
23:44 55.9 °F 44.1 °F 29.9 in Sur 4.9 mph 7 mph 63.9% 0 in
23:49 56.5 °F 43.9 °F 29.9 in Sur 4.7 mph 7 mph 62.6% 0 in
23:54 56.8 °F 43.9 °F 29.9 in Sur 3.9 mph 6 mph 62% 0 in
23:59 57 °F 43.7 °F 29.9 in Sur 3.6 mph 5 mph 61.1% 0 in
Murcia-Puente Tocinos, España
Compliments of Weather Underground - 3 mb

La estación de MeteoMurcia.com, publica sus datos en los siguientes proyectos:

Weather Underground PWS IMURCIAP2 Meteoclimatic www.awekas.at

W3Counter
Web Analytics